Time;durP1;ratioP1;P1;durP2;ratioP2;P2;SDS_P1;SDS_P2;PMS_P1;PMS_P2;Temp;Humidity;BMP_temperature;BMP_pressure;BME280_temperature;BME280_humidity;BME280_pressure;Samples;Min_cycle;Max_cycle;Signal;HPM_P1;HPM_P2
2021/01/30 00:00:04;;;;;;;29.10;23.73;;;;;;;;;;2098781;28;20199;-57
2021/01/30 00:01:04;;;;;;;25.77;22.93;;;;;;;;;;2097791;28;20170;-60
2021/01/30 00:02:05;;;;;;;25.77;23.03;;;;;;;;;;2094940;28;20438;-56
2021/01/30 00:03:06;;;;;;;26.20;23.33;;;;;;;;;;2097911;28;20560;-55
2021/01/30 00:04:06;;;;;;;27.77;24.10;;;;;;;;;;2089394;28;20159;-53
2021/01/30 00:05:07;;;;;;;27.80;24.10;;;;;;;;;;2089018;28;20624;-57
2021/01/30 00:06:07;;;;;;;24.73;22.13;;;;;;;;;;2093748;28;20278;-60
2021/01/30 00:07:08;;;;;;;27.87;23.57;;;;;;;;;;2093829;28;20171;-58
2021/01/30 00:08:09;;;;;;;26.80;22.87;;;;;;;;;;2097728;28;20167;-56
2021/01/30 00:09:09;;;;;;;23.80;20.80;;;;;;;;;;2095840;28;20175;-60
2021/01/30 00:10:09;;;;;;;26.83;22.63;;;;;;;;;;2098386;28;20615;-55
2021/01/30 00:11:11;;;;;;;23.43;20.80;;;;;;;;;;2094572;28;20230;-58
2021/01/30 00:12:11;;;;;;;24.97;22.27;;;;;;;;;;2083822;28;20199;-56
2021/01/30 00:13:12;;;;;;;22.80;20.40;;;;;;;;;;2096675;28;20813;-56
2021/01/30 00:14:12;;;;;;;22.80;20.37;;;;;;;;;;2097481;28;20201;-54
2021/01/30 00:15:14;;;;;;;22.37;19.73;;;;;;;;;;2093233;28;20250;-57
2021/01/30 00:16:14;;;;;;;23.03;20.37;;;;;;;;;;2097115;28;20190;-55
2021/01/30 00:17:15;;;;;;;22.93;19.47;;;;;;;;;;2096937;28;20884;-58
2021/01/30 00:18:15;;;;;;;25.17;22.47;;;;;;;;;;2097965;28;20186;-57
2021/01/30 00:19:15;;;;;;;24.90;22.17;;;;;;;;;;2097328;28;20173;-58
2021/01/30 00:20:17;;;;;;;24.50;20.73;;;;;;;;;;2098302;28;20178;-56
2021/01/30 00:21:17;;;;;;;21.23;18.87;;;;;;;;;;2091868;28;20187;-58
2021/01/30 00:22:19;;;;;;;21.50;19.30;;;;;;;;;;2094345;28;20419;-55
2021/01/30 00:23:19;;;;;;;21.17;18.97;;;;;;;;;;2096967;28;20555;-57
2021/01/30 00:24:20;;;;;;;22.37;19.90;;;;;;;;;;2097461;28;20423;-55
2021/01/30 00:25:26;;;;;;;21.27;18.97;;;;;;;;;;2095110;28;20163;-60
2021/01/30 00:26:27;;;;;;;18.23;15.80;;;;;;;;;;2093386;28;20527;-57
2021/01/30 00:27:27;;;;;;;18.83;16.87;;;;;;;;;;2093076;28;21011;-58
2021/01/30 00:28:27;;;;;;;19.00;17.13;;;;;;;;;;2096753;28;20177;-58
2021/01/30 00:29:31;;;;;;;22.07;19.67;;;;;;;;;;2094912;28;20174;-55
2021/01/30 00:30:32;;;;;;;19.10;17.10;;;;;;;;;;2095371;28;20202;-58
2021/01/30 00:31:32;;;;;;;18.53;16.63;;;;;;;;;;2097054;28;20503;-56
2021/01/30 00:32:32;;;;;;;19.00;16.47;;;;;;;;;;2093890;28;20431;-60
2021/01/30 00:33:32;;;;;;;18.30;16.40;;;;;;;;;;2096619;28;20175;-60
2021/01/30 00:34:33;;;;;;;17.83;15.93;;;;;;;;;;2097237;28;20206;-56
2021/01/30 00:35:34;;;;;;;16.57;14.87;;;;;;;;;;2096374;28;20187;-55
2021/01/30 00:36:35;;;;;;;20.47;17.60;;;;;;;;;;2095729;28;20210;-58
2021/01/30 00:37:35;;;;;;;18.50;16.47;;;;;;;;;;2096811;28;20451;-57
2021/01/30 00:38:35;;;;;;;17.03;15.23;;;;;;;;;;2093104;28;20191;-55
2021/01/30 00:39:36;;;;;;;17.57;15.67;;;;;;;;;;2096781;28;20163;-56
2021/01/30 00:40:36;;;;;;;16.83;14.97;;;;;;;;;;2092423;28;20187;-56
2021/01/30 00:41:36;;;;;;;17.13;15.33;;;;;;;;;;2093139;28;20333;-58
2021/01/30 00:42:37;;;;;;;18.20;16.40;;;;;;;;;;2095490;28;20181;-54
2021/01/30 00:43:37;;;;;;;17.30;15.50;;;;;;;;;;2097055;28;20179;-61
2021/01/30 00:44:37;;;;;;;18.30;16.20;;;;;;;;;;2096975;28;20178;-57
2021/01/30 00:45:37;;;;;;;17.13;15.33;;;;;;;;;;2096665;28;20183;-52
2021/01/30 00:46:38;;;;;;;18.40;16.13;;;;;;;;;;2096879;28;20189;-57
2021/01/30 00:47:38;;;;;;;17.80;15.90;;;;;;;;;;2088097;28;20213;-53
2021/01/30 00:48:39;;;;;;;17.20;15.40;;;;;;;;;;2086124;28;20171;-55
2021/01/30 00:49:40;;;;;;;17.27;15.60;;;;;;;;;;2088823;28;20167;-57
2021/01/30 00:50:40;;;;;;;17.33;15.60;;;;;;;;;;2080035;28;20233;-60
2021/01/30 00:51:41;;;;;;;15.63;14.13;;;;;;;;;;2086097;28;20459;-57
2021/01/30 00:52:42;;;;;;;17.57;15.87;;;;;;;;;;2096564;28;20574;-59
2021/01/30 00:53:56;;;;;;;16.60;14.37;;;;;;;;;;2090823;28;20175;-58
2021/01/30 00:54:56;;;;;;;15.30;13.80;;;;;;;;;;2088739;28;20822;-56
2021/01/30 00:55:56;;;;;;;15.27;13.80;;;;;;;;;;2096366;28;20221;-56
2021/01/30 00:56:57;;;;;;;14.87;13.43;;;;;;;;;;2096643;28;20274;-53
2021/01/30 00:58:00;;;;;;;14.50;13.20;;;;;;;;;;2084936;28;20176;-60
2021/01/30 00:59:06;;;;;;;15.93;14.37;;;;;;;;;;2097723;28;20503;-56
2021/01/30 01:00:11;;;;;;;15.47;13.93;;;;;;;;;;2105118;28;20401;-60
2021/01/30 01:01:12;;;;;;;14.60;13.30;;;;;;;;;;2101011;28;20968;-59
2021/01/30 01:02:14;;;;;;;14.27;12.87;;;;;;;;;;2096546;28;20491;-58
2021/01/30 01:03:19;;;;;;;13.90;12.47;;;;;;;;;;2097697;28;20888;-58
2021/01/30 01:04:31;;;;;;;14.33;13.03;;;;;;;;;;2096574;28;21060;-54
2021/01/30 01:05:31;;;;;;;14.63;13.23;;;;;;;;;;2096709;28;20408;-56
2021/01/30 01:06:32;;;;;;;15.07;13.50;;;;;;;;;;2095919;28;20199;-57
2021/01/30 01:07:32;;;;;;;14.77;13.37;;;;;;;;;;2096538;28;20625;-52
2021/01/30 01:08:32;;;;;;;14.50;13.20;;;;;;;;;;2098443;28;20167;-53
2021/01/30 01:09:33;;;;;;;13.87;12.57;;;;;;;;;;2092529;28;20244;-58
2021/01/30 01:10:33;;;;;;;14.90;13.30;;;;;;;;;;2097079;28;20171;-60
2021/01/30 01:11:34;;;;;;;14.43;13.13;;;;;;;;;;2095269;28;20175;-55
2021/01/30 01:12:35;;;;;;;14.10;12.77;;;;;;;;;;2099328;28;20266;-55
2021/01/30 01:13:35;;;;;;;13.07;11.90;;;;;;;;;;2092021;28;20482;-55
2021/01/30 01:14:35;;;;;;;13.57;12.30;;;;;;;;;;2099505;28;20258;-59
2021/01/30 01:15:35;;;;;;;12.80;11.57;;;;;;;;;;2092453;28;20171;-60
2021/01/30 01:16:35;;;;;;;12.77;11.47;;;;;;;;;;2098431;28;20207;-60
2021/01/30 01:17:36;;;;;;;13.40;12.10;;;;;;;;;;2099828;28;20163;-58
2021/01/30 01:18:36;;;;;;;12.03;10.93;;;;;;;;;;2099927;28;20688;-55
2021/01/30 01:19:36;;;;;;;14.00;11.47;;;;;;;;;;2100058;28;20658;-59
2021/01/30 01:20:37;;;;;;;12.87;11.70;;;;;;;;;;2096806;28;20171;-57
2021/01/30 01:21:37;;;;;;;12.27;11.13;;;;;;;;;;2095123;28;20671;-60
2021/01/30 01:22:37;;;;;;;12.10;11.00;;;;;;;;;;2099017;28;20281;-60
2021/01/30 01:23:39;;;;;;;12.10;11.00;;;;;;;;;;2094306;28;20184;-54
2021/01/30 01:24:40;;;;;;;11.50;10.50;;;;;;;;;;2099727;28;20215;-58
2021/01/30 01:25:40;;;;;;;13.40;12.10;;;;;;;;;;2099212;28;20407;-59
2021/01/30 01:26:42;;;;;;;12.93;11.73;;;;;;;;;;2102268;28;20187;-61
2021/01/30 01:27:43;;;;;;;13.00;11.80;;;;;;;;;;2088607;28;20624;-58
2021/01/30 01:28:43;;;;;;;11.93;10.93;;;;;;;;;;2099505;28;20490;-57
2021/01/30 01:29:43;;;;;;;12.17;11.07;;;;;;;;;;2099367;28;20206;-59
2021/01/30 01:30:44;;;;;;;11.93;10.87;;;;;;;;;;2099003;28;20185;-58
2021/01/30 01:31:49;;;;;;;11.03;10.13;;;;;;;;;;2099824;28;20179;-58
2021/01/30 01:32:50;;;;;;;12.33;11.23;;;;;;;;;;2100324;28;20161;-57
2021/01/30 01:33:50;;;;;;;12.13;11.13;;;;;;;;;;2099100;28;20903;-57
2021/01/30 01:34:51;;;;;;;11.67;10.57;;;;;;;;;;2099115;28;20415;-60
2021/01/30 01:35:51;;;;;;;13.10;11.70;;;;;;;;;;2094599;28;20287;-60
2021/01/30 01:36:55;;;;;;;13.60;12.30;;;;;;;;;;2097765;28;20498;-57
2021/01/30 01:37:56;;;;;;;11.83;10.83;;;;;;;;;;2093303;28;20172;-58
2021/01/30 01:38:56;;;;;;;12.17;11.13;;;;;;;;;;2100056;28;20510;-58
2021/01/30 01:39:56;;;;;;;13.37;12.07;;;;;;;;;;2094760;28;20690;-61
2021/01/30 01:40:57;;;;;;;13.60;12.30;;;;;;;;;;2099256;28;20182;-62
2021/01/30 01:42:16;;;;;;;11.87;10.77;;;;;;;;;;2093606;28;20557;-59
2021/01/30 01:43:18;;;;;;;12.80;11.70;;;;;;;;;;2096095;28;20517;-59
2021/01/30 01:44:18;;;;;;;12.83;11.63;;;;;;;;;;2096467;28;20423;-61
2021/01/30 01:45:18;;;;;;;11.77;10.67;;;;;;;;;;2099896;28;20416;-59
2021/01/30 01:46:29;;;;;;;13.60;12.20;;;;;;;;;;2099848;28;20728;-58
2021/01/30 01:47:43;;;;;;;16.33;14.43;;;;;;;;;;2106085;28;20193;-58
2021/01/30 01:48:49;;;;;;;12.37;11.27;;;;;;;;;;2099063;28;20404;-56
2021/01/30 01:49:50;;;;;;;13.30;12.20;;;;;;;;;;2100053;28;20497;-61
2021/01/30 01:50:51;;;;;;;12.80;11.60;;;;;;;;;;2099314;28;20422;-57
2021/01/30 01:52:14;;;;;;;12.77;11.67;;;;;;;;;;2099388;28;20534;-58
2021/01/30 01:53:25;;;;;;;12.90;11.70;;;;;;;;;;2086713;28;20182;-54
2021/01/30 01:54:26;;;;;;;12.67;11.37;;;;;;;;;;2091357;28;20502;-58
2021/01/30 01:55:27;;;;;;;12.73;11.53;;;;;;;;;;2097385;28;20423;-56
2021/01/30 01:56:29;;;;;;;12.13;11.03;;;;;;;;;;2105620;22;20537;-56
2021/01/30 01:57:30;;;;;;;11.83;10.83;;;;;;;;;;2097177;28;20179;-52
2021/01/30 01:58:31;;;;;;;12.60;11.40;;;;;;;;;;2085250;28;20449;-56
2021/01/30 01:59:32;;;;;;;12.63;11.43;;;;;;;;;;2089372;28;20171;-56
2021/01/30 02:00:32;;;;;;;11.93;10.83;;;;;;;;;;2090040;28;20454;-57
2021/01/30 02:01:34;;;;;;;12.03;10.93;;;;;;;;;;2092663;28;20679;-57
2021/01/30 02:02:35;;;;;;;13.20;11.90;;;;;;;;;;2091151;28;20171;-55
2021/01/30 02:03:36;;;;;;;12.83;11.63;;;;;;;;;;2089100;28;20924;-53
2021/01/30 02:04:36;;;;;;;12.60;11.30;;;;;;;;;;2091010;28;20187;-54
2021/01/30 02:05:38;;;;;;;12.43;11.23;;;;;;;;;;2090295;28;20314;-54
2021/01/30 02:06:40;;;;;;;13.23;12.03;;;;;;;;;;2098339;28;20214;-53
2021/01/30 02:07:42;;;;;;;13.80;12.43;;;;;;;;;;2098142;28;20459;-55
2021/01/30 02:08:42;;;;;;;15.03;13.53;;;;;;;;;;2082052;28;20425;-57
2021/01/30 02:09:42;;;;;;;13.03;11.80;;;;;;;;;;2090625;28;20448;-53
2021/01/30 02:10:44;;;;;;;14.13;12.73;;;;;;;;;;2089533;28;20225;-54
2021/01/30 02:11:58;;;;;;;13.30;12.07;;;;;;;;;;2091290;28;20249;-56
2021/01/30 02:13:02;;;;;;;13.13;11.83;;;;;;;;;;2089991;28;21361;-53
2021/01/30 02:14:03;;;;;;;12.97;11.77;;;;;;;;;;2090268;28;20505;-54
2021/01/30 02:15:05;;;;;;;14.00;12.60;;;;;;;;;;2089139;28;20421;-54
2021/01/30 02:16:15;;;;;;;14.20;12.77;;;;;;;;;;2092333;28;20397;-54
2021/01/30 02:17:15;;;;;;;15.43;13.57;;;;;;;;;;2094285;28;20925;-52
2021/01/30 02:18:26;;;;;;;13.73;12.43;;;;;;;;;;2087857;28;20445;-55
2021/01/30 02:19:42;;;;;;;14.17;12.77;;;;;;;;;;2089782;28;20245;-55
2021/01/30 02:20:48;;;;;;;15.20;13.70;;;;;;;;;;2086064;28;20526;-52
2021/01/30 02:22:09;;;;;;;13.77;12.47;;;;;;;;;;2093447;28;20810;-54
2021/01/30 02:23:28;;;;;;;15.17;13.40;;;;;;;;;;2073658;28;20861;-54
2021/01/30 02:24:34;;;;;;;14.13;12.63;;;;;;;;;;2087377;28;20416;-54
2021/01/30 02:25:48;;;;;;;14.73;13.23;;;;;;;;;;2096162;28;20477;-55
2021/01/30 02:26:54;;;;;;;15.63;14.03;;;;;;;;;;2096133;28;20815;-54
2021/01/30 02:28:02;;;;;;;15.40;13.87;;;;;;;;;;2094536;28;20499;-56
2021/01/30 02:29:21;;;;;;;15.93;13.87;;;;;;;;;;2090244;28;20438;-55
2021/01/30 02:30:40;;;;;;;15.93;14.20;;;;;;;;;;2087804;28;20440;-56
2021/01/30 02:31:53;;;;;;;16.67;14.37;;;;;;;;;;2087995;28;20514;-56
2021/01/30 02:33:12;;;;;;;15.30;13.70;;;;;;;;;;2090042;28;20465;-54
2021/01/30 02:34:31;;;;;;;15.67;14.07;;;;;;;;;;2089241;28;20847;-55
2021/01/30 02:35:39;;;;;;;16.87;14.33;;;;;;;;;;2089485;28;20454;-54
2021/01/30 02:36:46;;;;;;;15.73;14.03;;;;;;;;;;2090761;28;20464;-54
2021/01/30 02:37:49;;;;;;;16.07;13.97;;;;;;;;;;2091368;28;20419;-55
2021/01/30 02:38:59;;;;;;;18.17;16.20;;;;;;;;;;2083685;28;20394;-54
2021/01/30 02:40:06;;;;;;;16.90;14.50;;;;;;;;;;2093638;28;20567;-54
2021/01/30 02:41:13;;;;;;;15.23;13.63;;;;;;;;;;2090720;28;20400;-54
2021/01/30 02:42:15;;;;;;;16.50;14.73;;;;;;;;;;2093613;28;20427;-56
2021/01/30 02:43:21;;;;;;;16.47;14.53;;;;;;;;;;2090471;28;20449;-53
2021/01/30 02:44:21;;;;;;;15.73;14.13;;;;;;;;;;2087773;28;20401;-57
2021/01/30 02:45:24;;;;;;;17.07;15.27;;;;;;;;;;2092443;28;20464;-54
2021/01/30 02:46:27;;;;;;;17.67;15.43;;;;;;;;;;2089421;28;20215;-55
2021/01/30 02:47:29;;;;;;;16.83;15.03;;;;;;;;;;2089373;28;20489;-57
2021/01/30 02:48:30;;;;;;;17.40;15.57;;;;;;;;;;2089527;28;20440;-57
2021/01/30 02:49:32;;;;;;;16.90;14.70;;;;;;;;;;2084928;28;20494;-54
2021/01/30 02:50:44;;;;;;;16.53;14.00;;;;;;;;;;2088644;28;20507;-56
2021/01/30 02:51:47;;;;;;;16.80;14.33;;;;;;;;;;2087068;28;20489;-55
2021/01/30 02:52:48;;;;;;;16.70;14.67;;;;;;;;;;2089645;28;20435;-57
2021/01/30 02:53:51;;;;;;;17.93;14.47;;;;;;;;;;2090044;28;20408;-54
2021/01/30 02:54:54;;;;;;;16.87;15.07;;;;;;;;;;2089584;28;20496;-53
2021/01/30 02:55:57;;;;;;;16.90;15.10;;;;;;;;;;2084128;28;20456;-59
2021/01/30 02:56:57;;;;;;;15.57;13.97;;;;;;;;;;2093287;28;20696;-55
2021/01/30 02:57:58;;;;;;;19.07;14.87;;;;;;;;;;2089252;28;20420;-53
2021/01/30 02:59:03;;;;;;;16.70;14.90;;;;;;;;;;2089526;28;20261;-53
2021/01/30 03:00:05;;;;;;;18.17;15.80;;;;;;;;;;2089427;28;20415;-54
2021/01/30 03:01:06;;;;;;;16.93;15.10;;;;;;;;;;2090306;28;20768;-55
2021/01/30 03:02:06;;;;;;;18.77;16.77;;;;;;;;;;2093495;28;20436;-55
2021/01/30 03:03:06;;;;;;;18.30;16.40;;;;;;;;;;2090342;28;20218;-53
2021/01/30 03:04:09;;;;;;;17.07;15.27;;;;;;;;;;2088824;28;20179;-55
2021/01/30 03:05:11;;;;;;;17.60;15.10;;;;;;;;;;2089033;28;20176;-54
2021/01/30 03:06:22;;;;;;;17.60;15.60;;;;;;;;;;2089273;28;20780;-54
2021/01/30 03:07:40;;;;;;;19.37;16.50;;;;;;;;;;2089334;28;20393;-54
2021/01/30 03:08:44;;;;;;;16.97;14.77;;;;;;;;;;2082287;28;20397;-56
2021/01/30 03:09:46;;;;;;;17.60;15.67;;;;;;;;;;2089267;28;20499;-57
2021/01/30 03:10:50;;;;;;;18.80;15.77;;;;;;;;;;2096368;28;20498;-57
2021/01/30 03:12:11;;;;;;;18.70;16.07;;;;;;;;;;2092460;28;20421;-54
2021/01/30 03:13:38;;;;;;;21.53;16.90;;;;;;;;;;2078904;28;20408;-53
2021/01/30 03:14:59;;;;;;;20.73;16.93;;;;;;;;;;2088464;28;20432;-52
2021/01/30 03:16:07;;;;;;;18.43;15.63;;;;;;;;;;2084516;28;20436;-53
2021/01/30 03:17:07;;;;;;;18.67;16.40;;;;;;;;;;2091063;28;20418;-55
2021/01/30 03:18:09;;;;;;;18.53;15.53;;;;;;;;;;2088815;28;20451;-57
2021/01/30 03:19:16;;;;;;;17.23;15.40;;;;;;;;;;2089343;28;20225;-54
2021/01/30 03:20:16;;;;;;;16.13;14.53;;;;;;;;;;2086771;28;20392;-56
2021/01/30 03:21:16;;;;;;;17.20;15.40;;;;;;;;;;2089640;28;20432;-54
2021/01/30 03:22:17;;;;;;;16.87;15.10;;;;;;;;;;2093561;28;20180;-56
2021/01/30 03:23:19;;;;;;;17.43;15.33;;;;;;;;;;2089899;28;20255;-53
2021/01/30 03:24:19;;;;;;;18.07;15.60;;;;;;;;;;2089771;28;20175;-53
2021/01/30 03:25:21;;;;;;;16.60;14.77;;;;;;;;;;2087518;28;20630;-52
2021/01/30 03:26:23;;;;;;;16.53;14.67;;;;;;;;;;2087891;28;20290;-55
2021/01/30 03:27:28;;;;;;;20.20;16.23;;;;;;;;;;2088275;28;20449;-55
2021/01/30 03:28:28;;;;;;;17.03;15.10;;;;;;;;;;2088083;28;20750;-52
2021/01/30 03:29:29;;;;;;;17.70;15.27;;;;;;;;;;2088691;28;20440;-55
2021/01/30 03:30:29;;;;;;;17.50;15.70;;;;;;;;;;2089420;28;20762;-52
2021/01/30 03:31:30;;;;;;;17.13;15.27;;;;;;;;;;2089598;28;20205;-54
2021/01/30 03:32:30;;;;;;;19.20;16.17;;;;;;;;;;2089792;28;20186;-54
2021/01/30 03:33:30;;;;;;;17.97;16.07;;;;;;;;;;2092488;28;20220;-54
2021/01/30 03:34:31;;;;;;;18.00;15.73;;;;;;;;;;2091238;28;20190;-56
2021/01/30 03:35:31;;;;;;;18.20;15.97;;;;;;;;;;2083681;28;20173;-53
2021/01/30 03:36:31;;;;;;;19.60;17.13;;;;;;;;;;2088938;28;20739;-53
2021/01/30 03:37:31;;;;;;;19.17;16.77;;;;;;;;;;2083110;28;20571;-56
2021/01/30 03:38:32;;;;;;;18.47;16.50;;;;;;;;;;2092014;28;20545;-56
2021/01/30 03:39:32;;;;;;;18.67;16.67;;;;;;;;;;2084168;28;20542;-53
2021/01/30 03:40:33;;;;;;;17.80;15.60;;;;;;;;;;2088860;28;20636;-53
2021/01/30 03:41:33;;;;;;;17.13;15.33;;;;;;;;;;2091311;28;20241;-55
2021/01/30 03:42:34;;;;;;;17.80;15.87;;;;;;;;;;2092116;28;20624;-52
2021/01/30 03:43:34;;;;;;;18.43;16.20;;;;;;;;;;2089502;28;20692;-56
2021/01/30 03:44:34;;;;;;;18.50;16.57;;;;;;;;;;2089495;28;20168;-55
2021/01/30 03:45:35;;;;;;;18.77;16.77;;;;;;;;;;2089671;28;20316;-53
2021/01/30 03:46:35;;;;;;;20.23;17.13;;;;;;;;;;2089197;28;20203;-57
2021/01/30 03:47:36;;;;;;;18.60;15.67;;;;;;;;;;2088872;28;20178;-53
2021/01/30 03:48:36;;;;;;;17.80;15.87;;;;;;;;;;2087605;28;20188;-53
2021/01/30 03:49:36;;;;;;;18.93;15.30;;;;;;;;;;2089495;28;20171;-54
2021/01/30 03:50:36;;;;;;;17.27;15.47;;;;;;;;;;2089288;28;20207;-53
2021/01/30 03:51:37;;;;;;;17.53;15.10;;;;;;;;;;2091990;28;20179;-55
2021/01/30 03:52:37;;;;;;;18.07;15.30;;;;;;;;;;2089308;28;20179;-54
2021/01/30 03:53:37;;;;;;;17.33;14.63;;;;;;;;;;2088273;28;20191;-54
2021/01/30 03:54:38;;;;;;;16.87;15.07;;;;;;;;;;2089256;28;20266;-54
2021/01/30 03:55:38;;;;;;;16.60;14.87;;;;;;;;;;2089865;28;20175;-55
2021/01/30 03:56:40;;;;;;;16.97;15.27;;;;;;;;;;2089666;28;20668;-53
2021/01/30 03:57:40;;;;;;;16.50;14.80;;;;;;;;;;2089339;28;20199;-51
2021/01/30 03:58:41;;;;;;;15.07;13.47;;;;;;;;;;2085591;28;20425;-55
2021/01/30 03:59:41;;;;;;;16.93;15.03;;;;;;;;;;2089763;28;20187;-54
2021/01/30 04:00:42;;;;;;;17.53;15.67;;;;;;;;;;2092451;28;20171;-54
2021/01/30 04:01:42;;;;;;;16.13;14.47;;;;;;;;;;2092320;28;20175;-52
2021/01/30 04:02:42;;;;;;;15.13;13.67;;;;;;;;;;2084267;28;20576;-52
2021/01/30 04:03:45;;;;;;;17.23;15.43;;;;;;;;;;2081002;28;20266;-54
2021/01/30 04:04:46;;;;;;;15.80;14.30;;;;;;;;;;2088567;28;20184;-53
2021/01/30 04:05:46;;;;;;;17.63;14.80;;;;;;;;;;2089958;28;20447;-53
2021/01/30 04:06:50;;;;;;;16.17;14.40;;;;;;;;;;2092851;28;20617;-53
2021/01/30 04:07:50;;;;;;;15.70;14.07;;;;;;;;;;2089647;28;20215;-54
2021/01/30 04:08:51;;;;;;;15.83;14.23;;;;;;;;;;2088301;28;20450;-55
2021/01/30 04:09:51;;;;;;;16.83;15.03;;;;;;;;;;2092117;28;20176;-56
2021/01/30 04:10:51;;;;;;;15.63;13.87;;;;;;;;;;2099296;28;20269;-54
2021/01/30 04:11:52;;;;;;;15.07;13.53;;;;;;;;;;2093596;28;20202;-53
2021/01/30 04:12:52;;;;;;;16.10;14.27;;;;;;;;;;2091026;28;20190;-54
2021/01/30 04:13:53;;;;;;;17.17;15.33;;;;;;;;;;2091302;28;20192;-56
2021/01/30 04:14:53;;;;;;;15.90;14.30;;;;;;;;;;2091423;28;20182;-53
2021/01/30 04:15:53;;;;;;;16.03;14.33;;;;;;;;;;2094089;28;20534;-53
2021/01/30 04:16:54;;;;;;;15.97;13.97;;;;;;;;;;2092536;28;20199;-53
2021/01/30 04:17:54;;;;;;;16.60;14.77;;;;;;;;;;2091723;28;20560;-53
2021/01/30 04:18:55;;;;;;;16.03;14.37;;;;;;;;;;2093494;28;20194;-54
2021/01/30 04:19:55;;;;;;;16.27;14.63;;;;;;;;;;2093083;28;20273;-56
2021/01/30 04:20:55;;;;;;;15.57;13.97;;;;;;;;;;2093832;28;20167;-56
2021/01/30 04:21:55;;;;;;;14.97;13.47;;;;;;;;;;2095543;28;20175;-56
2021/01/30 04:22:56;;;;;;;15.60;14.00;;;;;;;;;;2093962;28;20186;-57
2021/01/30 04:23:56;;;;;;;14.50;12.73;;;;;;;;;;2091287;28;20209;-53
2021/01/30 04:24:56;;;;;;;14.83;13.23;;;;;;;;;;2089246;28;20727;-56
2021/01/30 04:25:56;;;;;;;15.37;13.77;;;;;;;;;;2089488;28;20205;-55
2021/01/30 04:26:57;;;;;;;16.23;14.53;;;;;;;;;;2088707;28;20196;-53
2021/01/30 04:27:57;;;;;;;16.43;14.30;;;;;;;;;;2089492;28;20179;-53
2021/01/30 04:28:57;;;;;;;16.03;14.10;;;;;;;;;;2089655;28;20195;-54
2021/01/30 04:29:57;;;;;;;18.50;14.57;;;;;;;;;;2089114;28;20203;-55
2021/01/30 04:30:58;;;;;;;15.57;13.97;;;;;;;;;;2084186;28;20708;-53
2021/01/30 04:31:58;;;;;;;17.03;14.27;;;;;;;;;;2089051;28;20203;-54
2021/01/30 04:32:59;;;;;;;15.23;13.70;;;;;;;;;;2088818;28;20176;-54
2021/01/30 04:33:59;;;;;;;15.77;13.67;;;;;;;;;;2088379;28;20667;-53
2021/01/30 04:34:59;;;;;;;17.83;14.43;;;;;;;;;;2091324;28;20193;-54
2021/01/30 04:36:00;;;;;;;16.73;13.70;;;;;;;;;;2088795;28;20188;-56
2021/01/30 04:37:00;;;;;;;15.20;13.63;;;;;;;;;;2089209;28;20268;-55
2021/01/30 04:38:01;;;;;;;15.60;14.00;;;;;;;;;;2089714;28;20768;-59
2021/01/30 04:39:02;;;;;;;16.63;14.90;;;;;;;;;;2093031;28;20184;-53
2021/01/30 04:40:04;;;;;;;15.30;13.70;;;;;;;;;;2091328;28;20171;-53
2021/01/30 04:41:10;;;;;;;15.53;13.83;;;;;;;;;;2089009;28;20432;-54
2021/01/30 04:42:10;;;;;;;15.67;14.07;;;;;;;;;;2097638;28;20426;-53
2021/01/30 04:43:14;;;;;;;14.83;12.77;;;;;;;;;;2082113;28;20429;-55
2021/01/30 04:44:14;;;;;;;15.13;13.70;;;;;;;;;;2084036;28;20175;-53
2021/01/30 04:45:21;;;;;;;17.50;13.97;;;;;;;;;;2089077;28;20416;-55
2021/01/30 04:46:33;;;;;;;16.17;14.50;;;;;;;;;;2088757;28;20546;-55
2021/01/30 04:47:52;;;;;;;15.60;14.00;;;;;;;;;;2096624;28;20907;-53
2021/01/30 04:49:09;;;;;;;15.20;13.47;;;;;;;;;;2089798;28;20400;-52
2021/01/30 04:50:09;;;;;;;17.10;14.13;;;;;;;;;;2090313;28;20470;-54
2021/01/30 04:51:13;;;;;;;15.60;13.63;;;;;;;;;;2091023;28;20502;-57
2021/01/30 04:52:16;;;;;;;15.77;13.57;;;;;;;;;;2092140;28;20185;-56
2021/01/30 04:53:19;;;;;;;15.53;13.50;;;;;;;;;;2087855;28;21054;-56
2021/01/30 04:54:29;;;;;;;18.53;14.67;;;;;;;;;;2090555;28;20436;-54
2021/01/30 04:55:48;;;;;;;16.40;14.67;;;;;;;;;;2091483;28;20478;-53
2021/01/30 04:56:48;;;;;;;16.83;14.10;;;;;;;;;;2083726;28;20464;-54
2021/01/30 04:57:51;;;;;;;16.53;14.67;;;;;;;;;;2091131;28;20407;-54
2021/01/30 04:58:56;;;;;;;16.67;14.43;;;;;;;;;;2090705;28;20178;-56
2021/01/30 05:00:05;;;;;;;16.90;14.83;;;;;;;;;;2086608;28;20512;-53
2021/01/30 05:01:10;;;;;;;16.77;14.43;;;;;;;;;;2090743;28;20416;-54
2021/01/30 05:02:49;;;;;;;17.47;14.93;;;;;;;;;;2088094;28;20782;-53
2021/01/30 05:04:08;;;;;;;17.77;15.03;;;;;;;;;;2073303;28;21232;-53
2021/01/30 05:05:10;;;;;;;18.17;14.30;;;;;;;;;;2065571;28;20410;-52
2021/01/30 05:06:17;;;;;;;16.10;14.10;;;;;;;;;;2069568;28;20423;-57
2021/01/30 05:07:37;;;;;;;17.23;15.07;;;;;;;;;;2065454;28;20498;-54
2021/01/30 05:08:42;;;;;;;16.83;13.70;;;;;;;;;;2060224;28;20510;-54
2021/01/30 05:10:02;;;;;;;16.70;14.87;;;;;;;;;;2072048;28;20928;-54
2021/01/30 05:11:07;;;;;;;13.90;12.50;;;;;;;;;;2081523;28;20413;-56
2021/01/30 05:12:10;;;;;;;13.50;12.10;;;;;;;;;;2091724;28;20422;-53
2021/01/30 05:13:17;;;;;;;13.83;12.43;;;;;;;;;;2094387;28;20420;-56
2021/01/30 05:14:19;;;;;;;14.67;12.30;;;;;;;;;;2091431;28;20734;-55
2021/01/30 05:15:28;;;;;;;14.97;12.30;;;;;;;;;;2087402;28;20413;-54
2021/01/30 05:16:30;;;;;;;13.17;11.77;;;;;;;;;;2089398;28;20864;-55
2021/01/30 05:17:33;;;;;;;12.97;11.67;;;;;;;;;;2090370;28;20444;-55
2021/01/30 05:18:36;;;;;;;13.87;12.30;;;;;;;;;;2090717;28;20417;-53
2021/01/30 05:19:39;;;;;;;13.90;12.43;;;;;;;;;;2084961;28;20433;-55
2021/01/30 05:20:41;;;;;;;13.43;12.07;;;;;;;;;;2091041;28;20411;-53
2021/01/30 05:21:52;;;;;;;13.30;11.97;;;;;;;;;;2091322;28;20502;-53
2021/01/30 05:22:53;;;;;;;13.67;11.33;;;;;;;;;;2091757;28;20431;-54
2021/01/30 05:23:53;;;;;;;12.60;11.03;;;;;;;;;;2089067;28;20423;-56
2021/01/30 05:24:53;;;;;;;12.50;11.30;;;;;;;;;;2089224;28;20174;-53
2021/01/30 05:25:57;;;;;;;12.90;10.67;;;;;;;;;;2083590;28;20184;-54
2021/01/30 05:27:00;;;;;;;12.40;11.10;;;;;;;;;;2088225;28;20234;-52
2021/01/30 05:28:13;;;;;;;12.87;10.97;;;;;;;;;;2084923;28;21233;-54
2021/01/30 05:29:22;;;;;;;11.90;10.40;;;;;;;;;;2092291;28;20427;-56
2021/01/30 05:30:36;;;;;;;12.93;11.53;;;;;;;;;;2093009;28;20473;-54
2021/01/30 05:31:39;;;;;;;12.37;11.17;;;;;;;;;;2090591;28;20522;-54
2021/01/30 05:32:45;;;;;;;11.83;10.40;;;;;;;;;;2090888;28;20452;-53
2021/01/30 05:34:01;;;;;;;12.20;11.00;;;;;;;;;;2082588;28;20428;-55
2021/01/30 05:35:11;;;;;;;11.37;10.17;;;;;;;;;;2090315;28;20507;-53
2021/01/30 05:36:14;;;;;;;11.63;10.43;;;;;;;;;;2087901;28;20428;-55
2021/01/30 05:37:17;;;;;;;12.07;10.83;;;;;;;;;;2090906;28;20405;-52
2021/01/30 05:38:24;;;;;;;11.10;9.57;;;;;;;;;;2090381;28;20417;-53
2021/01/30 05:39:43;;;;;;;13.00;11.60;;;;;;;;;;2090195;28;20450;-55
2021/01/30 05:41:10;;;;;;;12.37;11.00;;;;;;;;;;2083031;28;20511;-55
2021/01/30 05:42:13;;;;;;;12.33;10.87;;;;;;;;;;2088421;28;20964;-54
2021/01/30 05:43:18;;;;;;;12.87;11.10;;;;;;;;;;2090637;28;20423;-53
2021/01/30 05:44:24;;;;;;;12.63;11.03;;;;;;;;;;2090985;28;20423;-53
2021/01/30 05:45:34;;;;;;;11.47;10.27;;;;;;;;;;2090577;28;20417;-53
2021/01/30 05:46:35;;;;;;;11.77;9.87;;;;;;;;;;2090931;28;20436;-53
2021/01/30 05:47:35;;;;;;;12.00;10.87;;;;;;;;;;2086215;28;20413;-52
2021/01/30 05:48:38;;;;;;;11.90;10.70;;;;;;;;;;2089778;28;20186;-54
2021/01/30 05:49:43;;;;;;;12.10;10.10;;;;;;;;;;2089411;28;20553;-56
2021/01/30 05:50:46;;;;;;;11.93;10.73;;;;;;;;;;2081768;28;20437;-52
2021/01/30 05:52:16;;;;;;;12.03;9.50;;;;;;;;;;2087671;28;20481;-56
2021/01/30 05:53:19;;;;;;;11.17;10.03;;;;;;;;;;2085770;28;20486;-55
2021/01/30 05:54:19;;;;;;;11.40;10.23;;;;;;;;;;2089593;28;20400;-54
2021/01/30 05:55:28;;;;;;;13.43;11.57;;;;;;;;;;2090443;28;20515;-53
2021/01/30 05:56:30;;;;;;;15.07;11.47;;;;;;;;;;2092868;28;20225;-53
2021/01/30 05:57:30;;;;;;;13.27;11.17;;;;;;;;;;2091400;28;20425;-52
2021/01/30 05:58:34;;;;;;;13.93;11.90;;;;;;;;;;2090468;28;20440;-56
2021/01/30 05:59:34;;;;;;;13.57;10.20;;;;;;;;;;2089748;28;20176;-55
2021/01/30 06:00:34;;;;;;;12.77;11.17;;;;;;;;;;2088236;28;20424;-56
2021/01/30 06:01:35;;;;;;;14.20;11.07;;;;;;;;;;2090153;28;20247;-57
2021/01/30 06:02:35;;;;;;;13.70;10.87;;;;;;;;;;2092565;28;20272;-56
2021/01/30 06:03:51;;;;;;;15.57;11.00;;;;;;;;;;2090981;28;20231;-55
2021/01/30 06:04:51;;;;;;;13.53;11.37;;;;;;;;;;2088675;28;20183;-53
2021/01/30 06:06:01;;;;;;;12.63;10.77;;;;;;;;;;2090685;28;20432;-54
2021/01/30 06:07:02;;;;;;;13.50;11.13;;;;;;;;;;2089826;28;20198;-54
2021/01/30 06:08:10;;;;;;;12.57;10.73;;;;;;;;;;2090872;28;20432;-53
2021/01/30 06:09:30;;;;;;;13.57;10.83;;;;;;;;;;2090057;28;20628;-56